FOLSOM LAKE (FOL)

Elevation: 466' · AMERICAN R basin · Operator: US Bureau of Reclamation

Provisional data, subject to change.
Query executed Wednesday at 16:41:19   clock

Select a sensor type for a plot of data.
Note: Reservoir Flows are daily averages.

Earlier

Date RES ELE    STORAGE    RES CHG    TOC STO    ABV TOC    OUTFLOW    INFLOW    EVAP    FNF    RIV REL    PPT INC    SPILL    DC PUMP    DIS PWR   
 FEET   AF   AF   AF   AF   CFS   CFS   CFS   CFS   CFS   INCHES   CFS   CFS   CFS  
03/02/2015 424.62 566650 1194 631762 -65112 1044 1677 31 1731 0 0.00 0 73 971
03/03/2015 424.69 567248 598 634143 -66895 1167 1488 20 1598 0 0.00 0 72 1095
03/04/2015 424.76 567845 597 636524 -68679 924 1254 29 1442 0 0.00 0 71 853
03/05/2015 424.80 568186 341 638905 -70719 921 1119 26 1186 0 0.00 0 75 846
03/06/2015 424.86 568698 512 641286 -- 1025 1303 20 1275 0 0.00 0 76 949
03/07/2015 425.00 569893 1195 643667 -- 869 1505 34 1576 0 0.00 0 82 787
03/08/2015 425.04 570237 344 646048 -75811 967 1166 26 1273 0 0.00 0 85 882
03/09/2015 425.16 571270 1033 648429 -77159 844 1365 0 1512 0 0.00 0 85 759
03/10/2015 425.24 571959 689 650810 -78851 768 1115 0 1215 0 0.00 0 79 689
03/11/2015 425.30 572475 516 653191 -80716 998 1258 0 1484 0 0.05 0 78 920
03/12/2015 425.40 573336 861 655572 -82236 914 1348 0 1532 e 0 0.00 0 76 838
03/13/2015 425.42 573508 172 657952 -- 1018 1105 0 1616 0 0.00 0 73 945
03/14/2015 425.51 574283 775 660333 -- 944 1335 0 1531 e 0 0.00 0 83 861
03/15/2015 425.58 574885 602 662714 -87829 869 1222 49 1605 e 0 0.00 0 89 780
03/16/2015 425.64 575401 516 665095 -89694 835 1118 23 1606 e 0 0.00 0 94 741
03/17/2015 425.60 575057 -344 667476 -92419 1146 1005 32 1720 0 0.00 0 86 1060
03/18/2015 425.58 574885 -172 669857 -94972 942 878 23 1352 0 0.00 0 87 855
03/19/2015 425.57 574799 -86 672238 -97439 879 871 35 1289 0 0.00 0 83 796
03/20/2015 425.49 574110 -689 674619 -- 1093 781 35 1278 0 0.00 0 87 1006
03/21/2015 425.48 574024 -86 677000 -- 949 929 23 1105 0 0.00 0 97 852
03/22/2015 425.44 573680 -344 679381 -- 883 742 32 1090 e 0 0.00 0 97 786
03/23/2015 425.40 573336 -344 681762 -108426 908 767 32 1089 e 0 0.11 0 93 815
03/24/2015 425.41 573422 86 684143 -110721 900 975 32 1451 0 0.00 0 84 816
03/25/2015 425.41 573422 0 686524 -113102 719 751 32 1242 0 0.00 0 84 635
03/26/2015 425.43 573594 172 688905 -115311 580 699 32 1472 0 0.00 0 87 493
03/27/2015 425.39 573250 -344 -- -- 886 745 32 1203 0 0.00 0 89 797
03/28/2015 425.37 573078 -172 -- -- 947 892 32 1340 243 0.00 0 101 603
03/29/2015 425.32 572647 -431 -- -- 811 626 32 1074 397 0.00 0 107 307
03/30/2015 425.25 572045 -602 -- -- 785 513 32 1029 258 0.00 0 112 415
03/31/2015 425.19 571528 -517 -- -- 769 540 32 928 253 0.00 0 108 408
04/01/2015 -- -- -- -- -- -- -- -- -- -- -- -- -- --

Later | Latest

Warning! This data is preliminary and subject to revision.

Show FOL Map | Plot FOL Data | 1 Month FOL Data | Real-Time FOL Data | FOL Info